Portada
METAR-TAF:

METAR-TAF

Aeroports :

Nörvenich, Alemanya

latitud: 50-50N, longitud: 006-40E, altitud: 118 m

Observació

L'informe es va fer fa 26 minuts, a les 17:20 UTC
Vent 10 kt del Nord
Temperatura 8°C
Humitat 36%
Pressió 1027 hPa
Visibilitat 10 km o més

METAR: ETNN 311720Z 36010KT 9999 08/M06 Q1027 BLU+

Hora: 19:46 (17:46 UTC)

Pronòstic

L'informe es va fer fa 4 hores i 31 minuts, a les 13:15 UTC
Pronòstic vàlid del 31 a les 14 UTC al 31 a les 23 UTC
Vent 8 kt del Est/Nord-Est
Visibilitat 10 km o més
Escasses núvols a una alçada de 5000 ft

TAF: ETNN 311315Z 3114/3123 06008KT 9999 NSW FEW050 BY ETGL

Observacions i pronòstics meteorològics de més de 4000 aeroports (METAR i TAF).

Les estacions disponibles són els punts grocs i vermells al mapa.

Posi el ratolí al punt desitjat per veure el nom de l'estació.

Feu clic per veure les observacions i els pronòstics meteorològics.

Per canviar el mapa: feu clic els botons verds amb una creu de color negre per apropar; al botó verd amb un guió per allunyar la imatge; o en les fletxes verdes per a mapes adjacents.


METAR-TAF: